Time;durP1;ratioP1;P1;durP2;ratioP2;P2;SDS_P1;SDS_P2;PMS_P1;PMS_P2;Temp;Humidity;BMP_temperature;BMP_pressure;BME280_temperature;BME280_humidity;BME280_pressure;Samples;Min_cycle;Max_cycle;Signal;HPM_P1;HPM_P2
2023/01/13 00:01:24;;;;;;;3.80;1.80;;;9.00;99.90;;;;;;5054975;28;20294;-89
2023/01/13 00:03:51;;;;;;;2.53;1.87;;;8.90;99.90;;;;;;5056920;28;20308;-90
2023/01/13 00:06:24;;;;;;;0.80;0.43;;;8.90;99.90;;;;;;5059402;28;20218;-90
2023/01/13 00:08:51;;;;;;;9.27;1.83;;;8.90;99.90;;;;;;5062816;28;20206;-90
2023/01/13 00:11:18;;;;;;;24.23;2.73;;;8.90;99.90;;;;;;5052663;28;20201;-87
2023/01/13 00:13:45;;;;;;;1.90;0.97;;;8.90;99.90;;;;;;5053830;28;20790;-90
2023/01/13 00:16:14;;;;;;;4.67;1.80;;;8.80;99.90;;;;;;5060224;28;20217;-90
2023/01/13 00:18:40;;;;;;;3.03;1.40;;;8.90;99.90;;;;;;5055740;28;20343;-88
2023/01/13 00:21:07;;;;;;;2.23;0.70;;;8.80;99.90;;;;;;5056252;28;20213;-90
2023/01/13 00:23:34;;;;;;;3.70;1.80;;;8.80;99.90;;;;;;5060454;28;20798;-89
2023/01/13 00:26:06;;;;;;;2.67;1.50;;;8.80;99.90;;;;;;5026784;28;20182;-88
2023/01/13 00:28:32;;;;;;;1.50;1.37;;;8.80;99.90;;;;;;5056201;28;20374;-90
2023/01/13 00:31:16;;;;;;;13.03;1.67;;;8.80;99.90;;;;;;5054005;28;20213;-88
2023/01/13 00:33:42;;;;;;;8.27;2.30;;;8.80;99.90;;;;;;5055938;28;20213;-88
2023/01/13 00:36:11;;;;;;;1.53;1.53;;;8.80;99.90;;;;;;5054111;28;20274;-87
2023/01/13 00:38:37;;;;;;;10.07;3.37;;;8.80;99.90;;;;;;5055823;28;20237;-88
2023/01/13 00:41:09;;;;;;;2.90;2.70;;;8.70;99.90;;;;;;5053063;28;20206;-88
2023/01/13 00:43:36;;;;;;;4.23;1.00;;;8.80;99.90;;;;;;5057594;28;20653;-88
2023/01/13 00:46:03;;;;;;;8.13;1.63;;;8.70;99.90;;;;;;5052946;28;20308;-88
2023/01/13 00:48:30;;;;;;;1.80;0.97;;;8.70;99.90;;;;;;5053173;28;20623;-88
2023/01/13 00:51:00;;;;;;;6.87;3.10;;;8.70;99.90;;;;;;5038335;28;20221;-89
2023/01/13 00:53:28;;;;;;;5.33;2.17;;;8.80;99.90;;;;;;5053346;28;20678;-88
2023/01/13 00:56:05;;;;;;;0.20;0.20;;;8.70;99.90;;;;;;5039281;28;20178;-88
2023/01/13 00:58:32;;;;;;;11.27;2.07;;;8.70;99.90;;;;;;5077639;28;20287;-88
2023/01/13 01:01:22;;;;;;;19.20;3.17;;;8.70;99.90;;;;;;5030778;28;20224;-87
2023/01/13 01:03:49;;;;;;;2.10;2.00;;;8.70;99.90;;;;;;5045697;28;20247;-87
2023/01/13 01:06:23;;;;;;;0.93;0.70;;;8.60;99.90;;;;;;5041174;28;20242;-87
2023/01/13 01:08:50;;;;;;;3.70;2.30;;;8.70;99.90;;;;;;5053480;28;20751;-89
2023/01/13 01:11:22;;;;;;;6.70;1.90;;;8.60;99.90;;;;;;5051911;28;20186;-90
2023/01/13 01:13:51;;;;;;;3.97;1.67;;;8.60;99.90;;;;;;5058945;28;20694;-89
2023/01/13 01:16:19;;;;;;;7.80;2.07;;;8.60;99.90;;;;;;5046732;28;20245;-89
2023/01/13 01:18:47;;;;;;;14.97;1.87;;;8.70;99.90;;;;;;5054893;28;20256;-90
2023/01/13 01:21:13;;;;;;;9.20;1.67;;;8.70;99.90;;;;;;5050993;28;20659;-89
2023/01/13 01:23:40;;;;;;;11.67;2.60;;;8.60;99.90;;;;;;5043211;28;20994;-89
2023/01/13 01:26:09;;;;;;;10.23;2.13;;;8.60;99.90;;;;;;5037459;28;20779;-90
2023/01/13 01:28:35;;;;;;;1.33;0.63;;;8.60;99.90;;;;;;5052692;28;20178;-89
2023/01/13 01:31:09;;;;;;;4.77;2.20;;;8.60;99.90;;;;;;5036655;28;20270;-89
2023/01/13 01:33:35;;;;;;;3.90;1.13;;;8.60;99.90;;;;;;5050462;28;20217;-89
2023/01/13 01:36:02;;;;;;;15.53;2.00;;;8.60;99.90;;;;;;5037448;28;20225;-88
2023/01/13 01:38:28;;;;;;;0.20;0.20;;;8.70;99.90;;;;;;5033715;28;20759;-90
2023/01/13 01:40:54;;;;;;;4.43;2.00;;;8.60;99.90;;;;;;5035575;28;20194;-90
2023/01/13 01:46:05;;;;;;;21.90;1.87;;;8.60;99.90;;;;;;5050871;28;20223;-87
2023/01/13 01:48:41;;;;;;;8.60;2.30;;;8.60;99.90;;;;;;5078740;28;20229;-90
2023/01/13 01:51:10;;;;;;;4.10;2.13;;;8.60;99.90;;;;;;5052726;28;20272;-88
2023/01/13 01:53:38;;;;;;;4.70;1.37;;;8.60;99.90;;;;;;5050212;28;20274;-88
2023/01/13 01:56:06;;;;;;;21.27;4.30;;;8.60;99.90;;;;;;5052890;28;20283;-90
2023/01/13 01:58:44;;;;;;;13.00;2.53;;;8.60;99.90;;;;;;5037964;28;20279;-89
2023/01/13 02:01:14;;;;;;;3.03;1.57;;;8.60;99.90;;;;;;5050545;28;20220;-89
2023/01/13 02:03:45;;;;;;;13.00;2.17;;;8.70;99.90;;;;;;5054184;28;20209;-88
2023/01/13 02:06:13;;;;;;;11.10;2.30;;;8.70;99.90;;;;;;5056288;28;20586;-88
2023/01/13 02:08:40;;;;;;;2.33;1.40;;;8.60;99.90;;;;;;5049349;28;20217;-87
2023/01/13 02:12:28;;;;;;;4.63;1.70;;;8.60;99.90;;;;;;5055456;28;20217;-88
2023/01/13 02:13:52;;;;;;;3.40;1.27;;;8.60;99.90;;;;;;5052805;28;20190;-89
2023/01/13 02:16:23;;;;;;;5.73;2.73;;;8.50;99.90;;;;;;5040247;28;20264;-90
2023/01/13 02:18:54;;;;;;;8.70;2.37;;;8.60;99.90;;;;;;5054198;28;20325;-89
2023/01/13 02:22:02;;;;;;;1.70;1.60;;;8.50;99.90;;;;;;5052347;28;20221;-89
2023/01/13 02:25:06;;;;;;;10.67;1.90;;;8.50;99.90;;;;;;5057225;28;20428;-90
2023/01/13 02:28:01;;;;;;;7.93;1.03;;;8.50;99.90;;;;;;5058050;28;20209;-88
2023/01/13 02:33:33;;;;;;;1.80;0.93;;;8.50;99.90;;;;;;5055565;28;20259;-89
2023/01/13 02:36:01;;;;;;;2.10;1.90;;;8.50;99.90;;;;;;5053615;28;20210;-90
2023/01/13 02:38:56;;;;;;;13.20;1.57;;;8.50;99.90;;;;;;5055870;28;20253;-90
2023/01/13 02:44:47;;;;;;;1.50;1.00;;;8.40;99.90;;;;;;5054849;28;20308;-90
2023/01/13 02:47:21;;;;;;;2.53;1.77;;;8.40;99.90;;;;;;5056633;28;20189;-88
2023/01/13 02:50:09;;;;;;;8.10;2.63;;;8.50;99.90;;;;;;5060804;28;20190;-89
2023/01/13 02:52:43;;;;;;;0.83;0.67;;;8.50;99.90;;;;;;5059178;28;20251;-88
2023/01/13 02:55:25;;;;;;;1.67;1.37;;;8.40;99.90;;;;;;5054945;28;20247;-88
2023/01/13 02:57:53;;;;;;;2.57;1.40;;;8.50;99.90;;;;;;5056929;28;20264;-88
2023/01/13 03:00:21;;;;;;;9.40;3.10;;;8.50;99.90;;;;;;5057100;28;20257;-88
2023/01/13 03:02:48;;;;;;;4.77;1.40;;;8.60;99.90;;;;;;5052688;28;20217;-87
2023/01/13 03:05:15;;;;;;;0.97;0.83;;;8.60;99.90;;;;;;5056785;28;20284;-88
2023/01/13 03:08:07;;;;;;;21.47;1.80;;;8.70;99.90;;;;;;5042556;28;20185;-88
2023/01/13 03:10:54;;;;;;;5.10;1.40;;;8.70;99.90;;;;;;5055397;28;20613;-89
2023/01/13 03:14:01;;;;;;;11.80;4.30;;;8.70;99.90;;;;;;5058260;28;20248;-89
2023/01/13 03:17:00;;;;;;;1.60;1.50;;;8.80;99.90;;;;;;4968632;28;20219;-89
2023/01/13 03:19:36;;;;;;;3.07;2.00;;;8.70;99.90;;;;;;5033605;28;20308;-90
2023/01/13 03:22:18;;;;;;;7.93;2.57;;;8.70;99.90;;;;;;5053504;28;20225;-88
2023/01/13 03:24:50;;;;;;;7.50;1.10;;;8.70;99.90;;;;;;5056178;28;20215;-88
2023/01/13 03:27:34;;;;;;;4.00;2.30;;;8.70;99.90;;;;;;5057061;28;20294;-88
2023/01/13 03:30:26;;;;;;;4.87;0.80;;;8.70;99.90;;;;;;5057436;28;20218;-89
2023/01/13 03:32:58;;;;;;;5.83;1.80;;;8.70;99.90;;;;;;5054530;28;20216;-89
2023/01/13 03:35:32;;;;;;;4.30;3.13;;;8.70;99.90;;;;;;5060768;28;20654;-90
2023/01/13 03:38:20;;;;;;;2.33;1.67;;;8.60;99.90;;;;;;5056058;28;20275;-87
2023/01/13 03:40:52;;;;;;;12.53;1.50;;;8.70;99.90;;;;;;5057967;28;20222;-88
2023/01/13 03:46:20;;;;;;;11.60;2.77;;;8.70;99.90;;;;;;5055063;28;20694;-88
2023/01/13 03:48:49;;;;;;;0.50;0.50;;;8.70;99.90;;;;;;5052034;28;20225;-88
2023/01/13 03:51:18;;;;;;;1.13;1.10;;;8.70;99.90;;;;;;5053144;28;20248;-87
2023/01/13 03:54:03;;;;;;;9.27;2.13;;;8.60;99.90;;;;;;5055463;28;20217;-89
2023/01/13 03:56:44;;;;;;;0.73;0.73;;;8.60;99.90;;;;;;5056863;28;20667;-89
2023/01/13 03:59:16;;;;;;;2.83;0.63;;;8.60;99.90;;;;;;5058502;28;20201;-88
2023/01/13 04:02:11;;;;;;;6.90;2.27;;;8.60;99.90;;;;;;5056225;28;20911;-89
2023/01/13 04:04:53;;;;;;;1.70;1.00;;;8.60;99.90;;;;;;5055008;28;20255;-89
2023/01/13 04:07:45;;;;;;;8.97;2.13;;;8.70;99.90;;;;;;5055682;28;20216;-88
2023/01/13 04:10:26;;;;;;;3.80;2.20;;;8.70;99.90;;;;;;5050668;28;20312;-89
2023/01/13 04:13:01;;;;;;;7.10;2.37;;;8.70;99.90;;;;;;5056636;28;20625;-89
2023/01/13 04:15:47;;;;;;;6.20;0.93;;;8.70;99.90;;;;;;5052947;28;20748;-89
2023/01/13 04:18:29;;;;;;;3.20;2.00;;;8.70;99.90;;;;;;5054144;28;20259;-89
2023/01/13 04:21:00;;;;;;;32.60;3.60;;;8.70;99.90;;;;;;5054110;28;20248;-88
2023/01/13 04:23:26;;;;;;;4.03;2.87;;;8.70;99.90;;;;;;5052412;28;20218;-88
2023/01/13 04:25:53;;;;;;;2.30;0.80;;;8.70;99.90;;;;;;5025722;28;20266;-86
2023/01/13 04:28:19;;;;;;;17.00;1.37;;;8.70;99.90;;;;;;5057223;28;20666;-88
2023/01/13 04:30:46;;;;;;;11.40;1.90;;;8.80;99.90;;;;;;5040042;28;20228;-89
2023/01/13 04:33:12;;;;;;;1.03;1.03;;;8.80;99.90;;;;;;5054323;28;20808;-88
2023/01/13 04:35:38;;;;;;;3.83;0.67;;;8.80;99.90;;;;;;5058394;28;20628;-88
2023/01/13 04:38:22;;;;;;;3.13;1.53;;;8.90;99.90;;;;;;5056078;28;20356;-88
2023/01/13 04:40:48;;;;;;;0.80;0.80;;;8.90;99.90;;;;;;5055068;28;20225;-88
2023/01/13 04:43:14;;;;;;;21.13;2.10;;;8.90;99.90;;;;;;5023196;28;21055;-88
2023/01/13 04:45:41;;;;;;;2.70;2.47;;;8.90;99.90;;;;;;5040867;28;20220;-88
2023/01/13 04:48:07;;;;;;;1.13;0.77;;;8.90;99.90;;;;;;5055597;28;20577;-88
2023/01/13 04:50:33;;;;;;;1.47;0.97;;;9.00;99.90;;;;;;5055146;28;20217;-88
2023/01/13 04:53:00;;;;;;;3.93;2.80;;;9.00;99.90;;;;;;5044960;28;20507;-87
2023/01/13 04:55:26;;;;;;;0.57;0.53;;;9.00;99.90;;;;;;5037494;28;20606;-88
2023/01/13 04:57:51;;;;;;;3.60;1.33;;;9.00;99.90;;;;;;5049534;28;20838;-88
2023/01/13 05:00:19;;;;;;;16.07;2.00;;;9.00;99.90;;;;;;5032564;28;20321;-88
2023/01/13 05:02:46;;;;;;;1.80;0.93;;;9.00;99.90;;;;;;5051159;28;20217;-88
2023/01/13 05:05:11;;;;;;;2.50;0.87;;;9.00;99.90;;;;;;5037476;28;20656;-88
2023/01/13 05:07:37;;;;;;;3.47;1.87;;;9.00;99.90;;;;;;5021562;28;20194;-88
2023/01/13 05:10:03;;;;;;;4.17;3.20;;;9.00;99.90;;;;;;5048958;28;20759;-89
2023/01/13 05:18:00;;;;;;;8.57;1.63;;;9.00;99.90;;;;;;5052232;28;20928;-88
2023/01/13 05:20:26;;;;;;;2.37;1.30;;;9.00;99.90;;;;;;5037171;28;20445;-88
2023/01/13 05:25:39;;;;;;;6.97;1.60;;;9.10;99.90;;;;;;5054928;28;20198;-88
2023/01/13 05:28:06;;;;;;;2.57;2.37;;;9.00;99.90;;;;;;5043722;28;20216;-88
2023/01/13 05:30:35;;;;;;;2.23;1.20;;;9.00;99.90;;;;;;5054274;28;20279;-89
2023/01/13 05:33:01;;;;;;;5.30;1.70;;;9.00;99.90;;;;;;5053810;28;20213;-88
2023/01/13 05:35:28;;;;;;;1.93;1.77;;;9.00;99.90;;;;;;5052661;28;20221;-88
2023/01/13 05:37:54;;;;;;;15.23;1.23;;;9.00;99.90;;;;;;5049760;28;20229;-88
2023/01/13 05:43:20;;;;;;;9.97;1.07;;;9.00;99.90;;;;;;5053688;28;20221;-87
2023/01/13 05:45:52;;;;;;;11.90;1.70;;;8.90;99.90;;;;;;5054470;28;20227;-88
2023/01/13 05:48:20;;;;;;;4.03;0.77;;;8.90;99.90;;;;;;5053005;28;20236;-88
2023/01/13 05:50:48;;;;;;;2.37;1.37;;;8.90;99.90;;;;;;5055590;28;20706;-88
2023/01/13 05:53:14;;;;;;;7.03;1.27;;;8.80;99.90;;;;;;5049557;28;20217;-88
2023/01/13 05:55:41;;;;;;;8.80;0.50;;;8.70;99.90;;;;;;5041957;28;20273;-89
2023/01/13 05:58:09;;;;;;;1.03;0.97;;;8.70;99.90;;;;;;5060248;28;20314;-88
2023/01/13 06:00:36;;;;;;;3.77;1.83;;;8.70;99.90;;;;;;5053373;28;20316;-88
2023/01/13 06:03:02;;;;;;;0.60;0.60;;;8.70;99.90;;;;;;5039744;28;20212;-88
2023/01/13 06:05:29;;;;;;;3.60;1.23;;;8.70;99.90;;;;;;5026392;28;20305;-89
2023/01/13 06:07:58;;;;;;;4.43;1.50;;;8.70;99.90;;;;;;5047742;28;20273;-88
2023/01/13 06:10:25;;;;;;;13.50;2.00;;;8.70;99.90;;;;;;5051842;28;20755;-88
2023/01/13 06:12:51;;;;;;;0.40;0.40;;;8.70;99.90;;;;;;5025345;28;20731;-88
2023/01/13 06:15:17;;;;;;;11.80;2.30;;;8.70;99.90;;;;;;5055982;28;20493;-89
2023/01/13 06:17:43;;;;;;;0.97;0.93;;;8.70;99.90;;;;;;5053931;28;20213;-89
2023/01/13 06:20:10;;;;;;;1.07;1.07;;;8.70;99.90;;;;;;5024704;28;20258;-88
2023/01/13 06:22:40;;;;;;;2.40;1.70;;;8.70;99.90;;;;;;5038968;28;20267;-89
2023/01/13 06:25:15;;;;;;;7.40;1.73;;;8.70;99.90;;;;;;5051335;28;20563;-89
2023/01/13 06:27:41;;;;;;;1.87;1.63;;;8.70;99.90;;;;;;5052442;28;20836;-90
2023/01/13 06:30:08;;;;;;;7.20;2.90;;;8.80;99.90;;;;;;5040819;28;20624;-89
2023/01/13 06:32:39;;;;;;;1.33;1.23;;;8.80;99.90;;;;;;5048080;28;20228;-89
2023/01/13 06:35:08;;;;;;;2.07;1.30;;;8.90;99.90;;;;;;5055907;28;20279;-91
2023/01/13 06:37:35;;;;;;;14.93;1.77;;;8.90;99.90;;;;;;5069230;28;20458;-90
2023/01/13 06:40:05;;;;;;;0.73;0.73;;;8.90;99.90;;;;;;5061481;28;20232;-88
2023/01/13 06:45:20;;;;;;;6.87;1.83;;;8.90;99.90;;;;;;5060563;28;20628;-92
2023/01/13 06:47:46;;;;;;;6.13;0.90;;;8.80;99.90;;;;;;5055497;28;20231;-91
2023/01/13 06:50:12;;;;;;;1.17;1.03;;;8.80;99.90;;;;;;5062748;28;20186;-90
2023/01/13 06:52:37;;;;;;;12.17;1.83;;;8.80;99.90;;;;;;5031224;28;20182;-91
2023/01/13 06:55:03;;;;;;;3.93;1.07;;;8.80;99.90;;;;;;5061005;28;20216;-90
2023/01/13 06:57:29;;;;;;;4.57;1.60;;;8.70;99.90;;;;;;5060690;28;20222;-91
2023/01/13 06:59:55;;;;;;;1.03;0.97;;;8.70;99.90;;;;;;5061161;28;20235;-90
2023/01/13 07:02:21;;;;;;;11.33;3.07;;;8.70;99.90;;;;;;5061558;28;20841;-90
2023/01/13 07:04:47;;;;;;;1.33;0.63;;;8.70;99.90;;;;;;5044982;28;20186;-92
2023/01/13 07:07:13;;;;;;;3.57;1.13;;;8.70;99.90;;;;;;5050304;28;20220;-91
2023/01/13 07:09:39;;;;;;;1.80;1.60;;;8.80;99.90;;;;;;5052076;28;20221;-89
2023/01/13 07:12:05;;;;;;;1.23;0.30;;;8.80;99.90;;;;;;5062474;28;20770;-88
2023/01/13 07:17:15;;;;;;;1.47;1.23;;;8.80;99.90;;;;;;5055264;28;20189;-91
2023/01/13 07:19:40;;;;;;;0.57;0.57;;;8.80;99.90;;;;;;5040402;28;20460;-89
2023/01/13 07:22:06;;;;;;;0.23;0.23;;;8.80;99.90;;;;;;5042949;28;20217;-88
2023/01/13 07:24:32;;;;;;;1.20;0.93;;;8.80;99.90;;;;;;5039272;28;20209;-91
2023/01/13 07:26:58;;;;;;;7.60;1.20;;;8.80;99.90;;;;;;5040572;28;20522;-91
2023/01/13 07:29:24;;;;;;;3.60;1.60;;;8.90;99.90;;;;;;5054705;28;20677;-90
2023/01/13 07:31:49;;;;;;;8.67;1.70;;;8.90;99.90;;;;;;5041828;28;20190;-90
2023/01/13 07:34:15;;;;;;;3.83;1.40;;;8.90;99.90;;;;;;5040712;28;20213;-92
2023/01/13 07:36:41;;;;;;;2.73;1.33;;;8.90;99.90;;;;;;5043706;28;20692;-90
2023/01/13 07:39:06;;;;;;;0.70;0.70;;;9.00;99.90;;;;;;5039848;28;20261;-91
2023/01/13 07:44:33;;;;;;;2.03;1.87;;;9.00;99.90;;;;;;4994606;28;20215;-91
2023/01/13 07:46:59;;;;;;;5.73;2.40;;;9.00;99.90;;;;;;5026024;28;20198;-89
2023/01/13 07:49:25;;;;;;;2.57;1.13;;;9.00;99.90;;;;;;5058465;28;20217;-91
2023/01/13 07:51:50;;;;;;;2.40;2.00;;;9.00;99.90;;;;;;5056540;28;20304;-91
2023/01/13 07:54:16;;;;;;;0.63;0.63;;;9.00;99.90;;;;;;5037425;28;20244;-89
2023/01/13 07:56:42;;;;;;;2.13;1.03;;;9.00;99.90;;;;;;5057274;28;20217;-91
2023/01/13 07:59:07;;;;;;;7.73;1.27;;;9.10;99.90;;;;;;5042504;28;20244;-90
2023/01/13 08:01:33;;;;;;;4.37;1.70;;;9.10;99.90;;;;;;5030900;28;20720;-93
2023/01/13 08:03:59;;;;;;;2.77;1.17;;;9.10;99.90;;;;;;5037923;28;20212;-90
2023/01/13 08:06:25;;;;;;;11.83;0.93;;;9.10;99.90;;;;;;5039313;28;20229;-91
2023/01/13 08:08:52;;;;;;;5.60;1.87;;;9.10;99.90;;;;;;5055002;28;20677;-91
2023/01/13 08:11:17;;;;;;;10.33;2.63;;;9.10;99.90;;;;;;5039862;28;20235;-92
2023/01/13 08:13:44;;;;;;;6.50;1.40;;;9.10;99.90;;;;;;5040955;28;20186;-91
2023/01/13 08:16:12;;;;;;;3.10;2.17;;;9.10;99.90;;;;;;5058748;28;20260;-91
2023/01/13 08:18:38;;;;;;;1.27;1.17;;;9.10;99.90;;;;;;5055881;28;20503;-93
2023/01/13 08:21:10;;;;;;;4.10;2.00;;;9.00;99.90;;;;;;5039560;28;20221;-89
2023/01/13 08:23:35;;;;;;;0.77;0.77;;;8.90;99.90;;;;;;5056424;28;20221;-90
2023/01/13 08:26:05;;;;;;;8.53;1.20;;;8.90;99.90;;;;;;5051857;28;20186;-91
2023/01/13 08:28:31;;;;;;;2.87;1.57;;;8.80;99.90;;;;;;5053422;28;20188;-91
2023/01/13 08:31:03;;;;;;;1.33;0.97;;;8.60;99.90;;;;;;5056192;28;20229;-88
2023/01/13 08:33:29;;;;;;;9.23;2.03;;;8.60;99.90;;;;;;5052707;28;20206;-90
2023/01/13 08:35:55;;;;;;;2.60;1.87;;;8.50;99.90;;;;;;5053249;28;20210;-88
2023/01/13 08:38:21;;;;;;;0.70;0.70;;;8.50;99.90;;;;;;5054475;28;20234;-89
2023/01/13 08:40:47;;;;;;;2.33;2.03;;;8.40;99.90;;;;;;5054981;28;20237;-91
2023/01/13 08:43:12;;;;;;;4.43;2.43;;;8.40;99.90;;;;;;5052654;28;20796;-90
2023/01/13 08:45:38;;;;;;;1.57;0.93;;;8.40;99.90;;;;;;5040506;28;20304;-90
2023/01/13 08:48:04;;;;;;;1.27;1.17;;;8.40;99.90;;;;;;5022868;28;20217;-89
2023/01/13 08:50:30;;;;;;;2.70;1.20;;;8.50;99.90;;;;;;5054064;28;20213;-89
2023/01/13 08:52:56;;;;;;;0.80;0.80;;;8.50;99.90;;;;;;5055574;28;20175;-87
2023/01/13 08:55:22;;;;;;;2.60;0.53;;;8.50;99.90;;;;;;5055701;28;20300;-90
2023/01/13 08:57:48;;;;;;;5.17;0.40;;;8.60;99.90;;;;;;5052944;28;20290;-89
2023/01/13 09:00:15;;;;;;;1.50;1.40;;;8.60;99.90;;;;;;5038071;28;20229;-89
2023/01/13 09:02:41;;;;;;;5.00;1.10;;;8.60;99.90;;;;;;5054425;28;20229;-90
2023/01/13 09:05:08;;;;;;;1.93;0.93;;;8.60;99.90;;;;;;5056234;28;20189;-90
2023/01/13 09:07:35;;;;;;;11.40;1.27;;;8.60;99.90;;;;;;5051186;28;20174;-88
2023/01/13 09:10:03;;;;;;;8.90;1.07;;;8.60;99.90;;;;;;5054427;28;20521;-91
2023/01/13 09:15:13;;;;;;;0.60;0.57;;;8.60;99.90;;;;;;5051323;28;20708;-89
2023/01/13 09:17:39;;;;;;;4.23;1.90;;;8.60;99.90;;;;;;5035281;28;20301;-89
2023/01/13 09:20:05;;;;;;;2.17;1.13;;;8.60;99.90;;;;;;5023146;28;20221;-89
2023/01/13 09:22:31;;;;;;;10.93;2.10;;;8.60;99.90;;;;;;5054278;28;20571;-89
2023/01/13 09:24:56;;;;;;;0.50;0.50;;;8.60;99.90;;;;;;5055153;28;20205;-89
2023/01/13 09:27:23;;;;;;;0.57;0.57;;;8.70;99.90;;;;;;5038200;28;20715;-89
2023/01/13 09:29:50;;;;;;;1.83;1.70;;;8.70;99.90;;;;;;5024939;28;20217;-89
2023/01/13 09:32:16;;;;;;;2.40;0.70;;;8.70;99.90;;;;;;5054514;28;20252;-89
2023/01/13 09:35:00;;;;;;;6.17;1.10;;;8.60;99.90;;;;;;5050554;28;20285;-90
2023/01/13 09:37:27;;;;;;;6.40;0.93;;;8.60;99.90;;;;;;5057068;28;20230;-91
2023/01/13 09:39:55;;;;;;;1.30;0.53;;;8.60;99.90;;;;;;5053767;28;20728;-91
2023/01/13 09:45:12;;;;;;;2.13;0.63;;;8.60;99.90;;;;;;5055025;28;20757;-90
2023/01/13 09:47:43;;;;;;;0.40;0.40;;;8.70;99.90;;;;;;5053939;28;20216;-87
2023/01/13 09:50:41;;;;;;;17.07;2.00;;;8.80;99.90;;;;;;5052404;28;20185;-89
2023/01/13 09:53:13;;;;;;;1.97;1.87;;;8.90;99.90;;;;;;5036000;28;20198;-88
2023/01/13 09:55:39;;;;;;;0.50;0.40;;;8.90;99.90;;;;;;5056011;28;20184;-88
2023/01/13 09:58:17;;;;;;;3.23;0.77;;;9.00;99.90;;;;;;5040002;28;20229;-89
2023/01/13 10:01:00;;;;;;;3.73;0.87;;;9.10;99.90;;;;;;5052554;28;20266;-91
2023/01/13 10:03:31;;;;;;;2.90;0.77;;;9.10;99.90;;;;;;5054046;28;20213;-91
2023/01/13 10:06:11;;;;;;;2.93;0.87;;;9.20;99.90;;;;;;5056333;28;20229;-89
2023/01/13 10:08:39;;;;;;;0.33;0.33;;;9.20;99.90;;;;;;5076269;28;20277;-90
2023/01/13 10:14:24;;;;;;;3.30;0.93;;;9.20;99.90;;;;;;5054746;28;20190;-89
2023/01/13 10:17:03;;;;;;;0.20;0.20;;;9.20;99.90;;;;;;5063396;28;20165;-88
2023/01/13 10:19:45;;;;;;;1.03;0.50;;;9.20;99.90;;;;;;5077129;28;20265;-90
2023/01/13 10:22:39;;;;;;;2.10;1.90;;;9.20;99.90;;;;;;5056103;28;20217;-91
2023/01/13 10:25:20;;;;;;;0.23;0.23;;;9.20;99.90;;;;;;5023624;28;20228;-90
2023/01/13 10:27:49;;;;;;;0.67;0.60;;;9.20;99.90;;;;;;5058562;28;20623;-93
2023/01/13 10:30:31;;;;;;;8.37;1.07;;;9.10;99.90;;;;;;5054372;28;20232;-91
2023/01/13 10:33:23;;;;;;;1.33;1.30;;;9.10;99.90;;;;;;5056817;28;20221;-91
2023/01/13 10:35:58;;;;;;;9.70;1.03;;;9.20;99.90;;;;;;5056934;28;20216;-89
2023/01/13 10:38:26;;;;;;;0.57;0.50;;;9.30;99.90;;;;;;5056787;28;20270;-92
2023/01/13 10:40:57;;;;;;;4.17;1.13;;;9.30;99.90;;;;;;5052773;28;20251;-90
2023/01/13 10:43:24;;;;;;;6.40;1.93;;;9.30;99.90;;;;;;5056170;28;20233;-89
2023/01/13 10:46:01;;;;;;;3.10;1.33;;;9.30;99.90;;;;;;5028495;28;20506;-90
2023/01/13 10:48:43;;;;;;;8.73;3.07;;;9.30;99.90;;;;;;5058834;28;20222;-91
2023/01/13 10:51:12;;;;;;;1.13;1.13;;;9.30;99.90;;;;;;5056358;28;20213;-91
2023/01/13 10:54:11;;;;;;;3.93;0.90;;;9.30;99.90;;;;;;5041921;28;20307;-90
2023/01/13 10:56:41;;;;;;;3.83;0.60;;;9.20;99.90;;;;;;5032142;28;20214;-92
2023/01/13 10:59:21;;;;;;;6.77;2.57;;;9.20;99.90;;;;;;5054284;28;20344;-90
2023/01/13 11:01:59;;;;;;;13.93;1.20;;;9.30;99.90;;;;;;5062440;28;20197;-90
2023/01/13 11:05:07;;;;;;;2.13;0.53;;;9.40;99.90;;;;;;5050638;28;20228;-90
2023/01/13 11:07:35;;;;;;;1.30;1.13;;;9.40;99.90;;;;;;4958974;28;20247;-92
2023/01/13 11:10:16;;;;;;;5.40;1.73;;;9.40;99.90;;;;;;5046895;28;20262;-91
2023/01/13 11:12:57;;;;;;;2.37;1.13;;;9.10;99.90;;;;;;5054147;28;20271;-91
2023/01/13 11:15:39;;;;;;;6.90;0.93;;;9.10;99.90;;;;;;5054085;28;20251;-90
2023/01/13 11:18:21;;;;;;;0.77;0.77;;;9.20;99.90;;;;;;5056843;28;20236;-90
2023/01/13 11:20:50;;;;;;;2.53;1.70;;;9.30;99.90;;;;;;5061906;28;20248;-89
2023/01/13 11:23:38;;;;;;;1.37;0.90;;;9.40;99.90;;;;;;5055756;28;20289;-89
2023/01/13 11:26:35;;;;;;;5.87;2.97;;;9.50;99.90;;;;;;5045587;28;20212;-91
2023/01/13 11:29:12;;;;;;;2.63;0.30;;;9.40;99.90;;;;;;5052480;28;20288;-88
2023/01/13 11:31:51;;;;;;;4.27;1.83;;;9.40;99.90;;;;;;5053151;28;20189;-88
2023/01/13 11:34:35;;;;;;;6.10;2.00;;;9.40;99.90;;;;;;5055527;28;20218;-93
2023/01/13 11:37:29;;;;;;;13.17;1.70;;;9.50;99.90;;;;;;5052441;28;20239;-92
2023/01/13 11:40:24;;;;;;;0.80;0.80;;;9.40;99.90;;;;;;5062052;28;20247;-92
2023/01/13 11:43:11;;;;;;;3.30;1.00;;;9.30;99.90;;;;;;5079052;28;20245;-91
2023/01/13 11:45:45;;;;;;;0.63;0.43;;;9.40;99.90;;;;;;5054048;28;20224;-89
2023/01/13 11:48:18;;;;;;;0.30;0.30;;;9.40;99.90;;;;;;5057436;28;20730;-92
2023/01/13 11:50:59;;;;;;;4.33;1.17;;;9.30;99.90;;;;;;5057793;28;20235;-91
2023/01/13 11:53:44;;;;;;;2.23;1.33;;;9.30;99.90;;;;;;5057272;28;20217;-91
2023/01/13 11:56:37;;;;;;;3.17;1.30;;;9.40;99.90;;;;;;5051980;28;20186;-89
2023/01/13 11:59:30;;;;;;;15.60;1.37;;;9.60;99.90;;;;;;5056818;28;20349;-90
2023/01/13 12:02:21;;;;;;;3.50;0.93;;;9.50;99.90;;;;;;5056014;28;20185;-92
2023/01/13 12:05:26;;;;;;;0.40;0.30;;;9.40;99.90;;;;;;5058624;28;20205;-92
2023/01/13 12:08:09;;;;;;;3.40;2.93;;;9.40;99.90;;;;;;5056113;28;20209;-92
2023/01/13 12:10:56;;;;;;;1.27;0.77;;;9.30;99.90;;;;;;5058344;28;20580;-92
2023/01/13 12:13:48;;;;;;;1.87;0.83;;;9.40;99.90;;;;;;5058253;28;20217;-93
2023/01/13 12:16:24;;;;;;;15.70;2.17;;;9.60;99.90;;;;;;5048445;28;20698;-90
2023/01/13 12:19:03;;;;;;;2.57;1.70;;;9.80;99.90;;;;;;5053189;28;20300;-92
2023/01/13 12:21:35;;;;;;;2.97;0.67;;;9.90;99.90;;;;;;5056417;28;20395;-92
2023/01/13 12:24:11;;;;;;;1.33;1.23;;;9.90;99.90;;;;;;5056553;28;20287;-91
2023/01/13 12:26:43;;;;;;;2.53;1.27;;;9.90;99.90;;;;;;5054432;28;20271;-91
2023/01/13 12:29:17;;;;;;;2.80;1.20;;;9.90;99.90;;;;;;5055508;28;20201;-90
2023/01/13 12:31:49;;;;;;;1.30;1.13;;;9.70;99.90;;;;;;5056118;28;20200;-91
2023/01/13 12:34:42;;;;;;;2.23;0.73;;;9.70;99.90;;;;;;5057128;28;20666;-92
2023/01/13 12:37:17;;;;;;;2.07;1.40;;;9.80;99.90;;;;;;5056598;28;20328;-89
2023/01/13 12:39:42;;;;;;;4.37;1.80;;;9.80;99.90;;;;;;5068384;28;20342;-90
2023/01/13 12:45:10;;;;;;;0.30;0.30;;;9.70;99.90;;;;;;5056818;28;20221;-91
2023/01/13 12:47:47;;;;;;;1.43;1.00;;;9.60;99.90;;;;;;5058413;28;20714;-91
2023/01/13 12:50:25;;;;;;;1.07;0.50;;;9.60;99.90;;;;;;5058424;28;20180;-95
2023/01/13 12:52:57;;;;;;;1.00;0.57;;;9.60;99.90;;;;;;5059193;28;20710;-91
2023/01/13 12:55:32;;;;;;;0.33;0.33;;;9.60;99.90;;;;;;5057931;28;20213;-92
2023/01/13 12:58:03;;;;;;;0.70;0.70;;;9.70;99.90;;;;;;5054188;28;20241;-93
2023/01/13 13:00:37;;;;;;;1.70;1.67;;;9.70;99.90;;;;;;5064618;28;20268;-93
2023/01/13 13:03:14;;;;;;;0.10;0.10;;;9.70;99.90;;;;;;5061980;28;20229;-93
2023/01/13 13:05:43;;;;;;;1.73;1.03;;;9.70;99.90;;;;;;5059321;28;20262;-88
2023/01/13 13:08:17;;;;;;;6.83;1.00;;;9.60;99.90;;;;;;5066325;28;20407;-89
2023/01/13 13:13:58;;;;;;;0.30;0.30;;;9.50;99.90;;;;;;5046684;28;20884;-91
2023/01/13 13:16:29;;;;;;;1.33;1.23;;;9.50;99.90;;;;;;5060968;28;20561;-93
2023/01/13 13:19:21;;;;;;;6.07;1.37;;;9.50;99.90;;;;;;5065121;28;20300;-91
2023/01/13 13:22:15;;;;;;;3.17;1.67;;;9.50;99.90;;;;;;5052785;28;20257;-91
2023/01/13 13:25:01;;;;;;;0.83;0.83;;;9.50;99.90;;;;;;5060778;28;20679;-92
2023/01/13 13:27:36;;;;;;;1.53;0.90;;;9.60;99.90;;;;;;5064077;28;20219;-91
2023/01/13 13:30:14;;;;;;;1.03;0.93;;;9.60;99.90;;;;;;5067664;28;20277;-92
2023/01/13 13:33:14;;;;;;;6.83;2.00;;;9.60;99.90;;;;;;5059005;28;20324;-94
2023/01/13 13:35:50;;;;;;;2.47;0.57;;;9.60;99.90;;;;;;5061863;28;20224;-92
2023/01/13 13:47:01;;;;;;;0.20;0.20;;;9.40;99.90;;;;;;5061178;28;20280;-93
2023/01/13 13:49:39;;;;;;;0.40;0.33;;;9.40;99.90;;;;;;5061900;28;20625;-94
2023/01/13 13:52:17;;;;;;;0.83;0.40;;;9.40;99.90;;;;;;5060781;28;20222;-91
2023/01/13 13:54:48;;;;;;;1.13;0.70;;;9.20;99.90;;;;;;5055990;28;20227;-93
2023/01/13 13:57:33;;;;;;;1.50;0.50;;;9.20;99.90;;;;;;5058428;28;20217;-93
2023/01/13 13:59:59;;;;;;;5.10;1.17;;;9.20;99.90;;;;;;5050862;28;20228;-91
2023/01/13 14:02:36;;;;;;;2.20;0.63;;;9.10;99.90;;;;;;5055752;28;21064;-91
2023/01/13 14:05:18;;;;;;;0.73;0.73;;;8.90;99.90;;;;;;5055738;28;20181;-90
2023/01/13 14:07:47;;;;;;;0.33;0.33;;;8.80;99.90;;;;;;5076423;28;20222;-90
2023/01/13 14:10:37;;;;;;;0.70;0.70;;;8.70;99.90;;;;;;5052063;28;20218;-91
2023/01/13 14:13:18;;;;;;;1.93;0.60;;;8.60;99.90;;;;;;5051004;28;20229;-90
2023/01/13 14:15:45;;;;;;;3.70;1.90;;;8.50;99.90;;;;;;5051184;28;20215;-88
2023/01/13 14:18:19;;;;;;;1.20;1.07;;;8.50;99.90;;;;;;5059180;28;20247;-92
2023/01/13 14:21:18;;;;;;;4.33;0.83;;;8.50;99.90;;;;;;5058023;28;20233;-89